Alithini — 9HA4311 — position and weather

sailwx.info

Track history (hours):
 
Tides and Currents Weather Stations Pressure Air Temp Water Temp Dewpoint Dewpoint Depression Visibility Wind Speed Wind Dir Waves Ship Positions

Alithini

Last reported at 2017-Nov-24 20:46 UTC. Time now 2017-Dec-12 12:40 UTC.
Position N 27°43' W 015°18'.
Warning: this ship's position is 17 days out of date.

Length 190 m; draft 11.9 m.

Type: Cargo ship. MMSI: 249608000.

Date/timePositionNaut miles runAvg speedWind from/ knotsBaromVisibWave heightAir tempDewpointWater temp
2017-Nov-24 20:46N 27°43' W 015°18'414.0
2017-Nov-24 20:30N 27°46' W 015°17'713.8
2017-Nov-24 20:00N 27°53' W 015°16'713.3
2017-Nov-24 19:30N 28°00' W 015°16'611.8
2017-Nov-24 19:00N 28°05' W 015°21'4 8.0
2017-Nov-24 18:30N 28°07' W 015°24'0 0.2
2017-Nov-24 18:00N 28°07' W 015°24'0 0.0
2017-Nov-24 17:30N 28°07' W 015°24'0 0.0
2017-Nov-24 17:00N 28°07' W 015°24'0 0.1
2017-Nov-24 16:30N 28°07' W 015°24'0 0.1
2017-Nov-24 16:00N 28°07' W 015°24'0 0.1
2017-Nov-24 15:30N 28°07' W 015°24'0 0.1
2017-Nov-24 15:00N 28°07' W 015°24'0 0.0
2017-Nov-24 14:30N 28°07' W 015°24'0 0.0
2017-Nov-24 14:00N 28°07' W 015°24'0 0.0
2017-Nov-24 13:30N 28°07' W 015°24'0 0.0
2017-Nov-24 13:00N 28°07' W 015°24'0 0.0
2017-Nov-24 12:30N 28°07' W 015°24'0 0.1
2017-Nov-24 12:00N 28°07' W 015°24'0 0.0
2017-Nov-24 11:30N 28°07' W 015°24'0 0.1
2017-Nov-24 11:00N 28°07' W 015°24'0 0.2
2017-Nov-24 10:30N 28°07' W 015°24'0 0.2
2017-Nov-24 10:00N 28°07' W 015°24'1 1.7
2017-Nov-24 09:30N 28°07' W 015°23'2 4.4
2017-Nov-24 09:00N 28°07' W 015°21'2 3.3
2017-Nov-24 08:30N 28°08' W 015°19'0 0.3
2017-Nov-24 08:00N 28°08' W 015°19'0 0.5
2017-Nov-24 07:30N 28°08' W 015°20'0 0.7
2017-Nov-24 07:00N 28°08' W 015°20'1 1.7
2017-Nov-24 06:30N 28°07' W 015°21'1 2.0
2017-Nov-24 06:00N 28°08' W 015°22'1 2.8
2017-Nov-24 05:30N 28°09' W 015°22'4 7.2
2017-Nov-24 05:00N 28°13' W 015°21'4 8.3
2017-Nov-24 04:30N 28°17' W 015°22'4 7.9
2017-Nov-24 04:00N 28°20' W 015°24'5 9.7
2017-Nov-24 03:30N 28°24' W 015°27'713.2
2017-Nov-24 03:00N 28°30' W 015°30'613.0
2017-Nov-24 02:30N 28°35' W 015°35'713.4
2017-Nov-24 02:00N 28°39' W 015°41'  
Track history (hours):
 
Tides and Currents Weather Stations Pressure Air Temp Water Temp Dewpoint Dewpoint Depression Visibility Wind Speed Wind Dir Waves Ship Positions

Alithini

Last reported at 2017-Nov-24 20:46 UTC. Time now 2017-Dec-12 12:40 UTC.
Position N 27°43' W 015°18'.
Warning: this ship's position is 17 days out of date.

Length 190 m; draft 11.9 m.

Type: Cargo ship. MMSI: 249608000.

Date/timePositionNaut miles runAvg speedWind from/ knotsBaromVisibWave heightAir tempDewpointWater temp
2017-Nov-24 20:46N 27°43' W 015°18'414.0
2017-Nov-24 20:30N 27°46' W 015°17'713.8
2017-Nov-24 20:00N 27°53' W 015°16'713.3
2017-Nov-24 19:30N 28°00' W 015°16'611.8
2017-Nov-24 19:00N 28°05' W 015°21'4 8.0
2017-Nov-24 18:30N 28°07' W 015°24'0 0.2
2017-Nov-24 18:00N 28°07' W 015°24'0 0.0
2017-Nov-24 17:30N 28°07' W 015°24'0 0.0
2017-Nov-24 17:00N 28°07' W 015°24'0 0.1
2017-Nov-24 16:30N 28°07' W 015°24'0 0.1
2017-Nov-24 16:00N 28°07' W 015°24'0 0.1
2017-Nov-24 15:30N 28°07' W 015°24'0 0.1
2017-Nov-24 15:00N 28°07' W 015°24'0 0.0
2017-Nov-24 14:30N 28°07' W 015°24'0 0.0
2017-Nov-24 14:00N 28°07' W 015°24'0 0.0
2017-Nov-24 13:30N 28°07' W 015°24'0 0.0
2017-Nov-24 13:00N 28°07' W 015°24'0 0.0
2017-Nov-24 12:30N 28°07' W 015°24'0 0.1
2017-Nov-24 12:00N 28°07' W 015°24'0 0.0
2017-Nov-24 11:30N 28°07' W 015°24'0 0.1
2017-Nov-24 11:00N 28°07' W 015°24'0 0.2
2017-Nov-24 10:30N 28°07' W 015°24'0 0.2
2017-Nov-24 10:00N 28°07' W 015°24'1 1.7
2017-Nov-24 09:30N 28°07' W 015°23'2 4.4
2017-Nov-24 09:00N 28°07' W 015°21'2 3.3
2017-Nov-24 08:30N 28°08' W 015°19'0 0.3
2017-Nov-24 08:00N 28°08' W 015°19'0 0.5
2017-Nov-24 07:30N 28°08' W 015°20'0 0.7
2017-Nov-24 07:00N 28°08' W 015°20'1 1.7
2017-Nov-24 06:30N 28°07' W 015°21'1 2.0
2017-Nov-24 06:00N 28°08' W 015°22'1 2.8
2017-Nov-24 05:30N 28°09' W 015°22'4 7.2
2017-Nov-24 05:00N 28°13' W 015°21'4 8.3
2017-Nov-24 04:30N 28°17' W 015°22'4 7.9
2017-Nov-24 04:00N 28°20' W 015°24'5 9.7
2017-Nov-24 03:30N 28°24' W 015°27'713.2
2017-Nov-24 03:00N 28°30' W 015°30'613.0
2017-Nov-24 02:30N 28°35' W 015°35'713.4
2017-Nov-24 02:00N 28°39' W 015°41'  

Dump ship's entire track history